createdAt,value
2019-02-28T00:00:08.923Z,41.53
2019-02-28T00:02:37.614Z,39.50
2019-02-28T00:05:06.823Z,37.93
2019-02-28T00:07:35.649Z,42.20
2019-02-28T00:10:04.981Z,41.27
2019-02-28T00:12:35.353Z,41.73
2019-02-28T00:15:04.596Z,40.47
2019-02-28T00:17:33.416Z,50.37
2019-02-28T00:20:02.194Z,44.70
2019-02-28T00:22:30.977Z,41.80
2019-02-28T00:25:01.157Z,44.07
2019-02-28T00:27:30.712Z,48.10
2019-02-28T00:29:59.445Z,42.67
2019-02-28T00:32:28.177Z,44.80
2019-02-28T00:34:56.949Z,46.27
2019-02-28T00:37:25.738Z,38.33
2019-02-28T00:39:54.425Z,46.00
2019-02-28T00:42:23.157Z,46.20
2019-02-28T00:44:52.930Z,47.10
2019-02-28T00:47:21.646Z,44.43
2019-02-28T00:49:50.348Z,51.93
2019-02-28T00:52:19.071Z,45.20
2019-02-28T00:54:47.854Z,48.53
2019-02-28T00:57:16.585Z,49.50
2019-02-28T00:59:45.302Z,47.63
2019-02-28T01:02:14.097Z,47.80
2019-02-28T01:04:42.806Z,48.17
2019-02-28T01:07:13.260Z,49.53
2019-02-28T01:09:41.977Z,49.23
2019-02-28T01:12:10.696Z,45.17
2019-02-28T01:14:39.790Z,43.30
2019-02-28T01:17:08.496Z,48.63
2019-02-28T01:19:37.227Z,54.13
2019-02-28T01:22:06.017Z,47.97
2019-02-28T01:24:35.461Z,57.93
2019-02-28T01:27:04.422Z,56.27
2019-02-28T01:29:35.701Z,58.10
2019-02-28T01:32:03.770Z,50.57
2019-02-28T01:34:33.049Z,53.90
2019-02-28T01:37:04.172Z,50.27
2019-02-28T01:39:34.232Z,51.67
2019-02-28T01:42:02.970Z,52.33
2019-02-28T01:44:35.814Z,58.80
2019-02-28T01:47:03.972Z,51.03
2019-02-28T01:49:32.689Z,57.30
2019-02-28T01:52:01.468Z,57.63
2019-02-28T01:54:30.221Z,60.20
2019-02-28T01:56:58.989Z,63.87
2019-02-28T01:59:27.684Z,53.20
2019-02-28T02:01:56.440Z,55.30
2019-02-28T02:04:25.228Z,57.87
2019-02-28T02:06:59.622Z,51.00
2019-02-28T02:09:25.035Z,54.90
2019-02-28T02:11:53.839Z,54.30
2019-02-28T02:14:22.636Z,56.43
2019-02-28T02:16:51.420Z,58.93
2019-02-28T02:19:20.146Z,61.53
2019-02-28T02:21:48.965Z,55.50
2019-02-28T02:24:17.777Z,58.93
2019-02-28T02:26:46.481Z,66.40
2019-02-28T02:29:15.292Z,55.93
2019-02-28T02:31:44.024Z,64.13
2019-02-28T02:34:12.796Z,58.07
2019-02-28T02:36:41.590Z,56.97
2019-02-28T02:39:16.342Z,58.67
2019-02-28T02:41:40.801Z,61.53
2019-02-28T02:44:09.536Z,69.57
2019-02-28T02:46:38.270Z,61.07
2019-02-28T02:49:07.047Z,55.47
2019-02-28T02:51:35.817Z,63.93
2019-02-28T02:54:04.555Z,61.77
2019-02-28T02:56:40.509Z,66.17
2019-02-28T02:59:03.781Z,60.33
2019-02-28T03:01:32.570Z,57.87
2019-02-28T03:04:01.295Z,56.60
2019-02-28T03:06:30.098Z,56.40
2019-02-28T03:08:58.981Z,63.33
2019-02-28T03:11:27.761Z,59.03
2019-02-28T03:13:56.504Z,64.70
2019-02-28T03:16:25.281Z,59.27
2019-02-28T03:18:58.045Z,58.80
2019-02-28T03:21:24.517Z,63.73
2019-02-28T03:23:53.235Z,73.70
2019-02-28T03:26:22.032Z,62.03
2019-02-28T03:28:50.811Z,67.47
2019-02-28T03:31:19.639Z,61.63
2019-02-28T03:33:48.401Z,65.37
2019-02-28T03:36:17.233Z,61.97
2019-02-28T03:38:49.636Z,62.13
2019-02-28T03:41:17.878Z,64.60
2019-02-28T03:43:46.929Z,65.17
2019-02-28T03:46:15.744Z,65.33
2019-02-28T03:48:44.530Z,70.87
2019-02-28T03:51:13.339Z,60.27
2019-02-28T03:53:42.116Z,68.70
2019-02-28T03:56:14.277Z,64.33
2019-02-28T03:58:42.986Z,69.00
2019-02-28T04:01:11.783Z,67.43
2019-02-28T04:03:40.585Z,58.63
2019-02-28T04:06:09.395Z,61.33
2019-02-28T04:08:38.159Z,57.80
2019-02-28T04:11:06.868Z,66.30
2019-02-28T04:13:35.801Z,64.37
2019-02-28T04:16:09.103Z,56.30
2019-02-28T04:18:35.040Z,67.47
2019-02-28T04:21:03.767Z,66.23
2019-02-28T04:23:35.943Z,67.53
2019-02-28T04:26:03.002Z,64.53
2019-02-28T04:28:31.798Z,64.83
2019-02-28T04:31:00.636Z,56.53
2019-02-28T04:33:29.396Z,64.37
2019-02-28T04:36:00.698Z,62.80
2019-02-28T04:38:28.637Z,54.80
2019-02-28T04:40:58.848Z,58.87
2019-02-28T04:43:27.867Z,54.50
2019-02-28T04:45:57.709Z,62.47
2019-02-28T04:48:27.178Z,63.53
2019-02-28T04:50:55.892Z,59.57
2019-02-28T04:53:24.611Z,55.47
2019-02-28T04:55:53.431Z,74.87
2019-02-28T04:58:22.352Z,71.00
2019-02-28T05:00:56.173Z,61.93
2019-02-28T05:03:27.914Z,56.57
2019-02-28T05:05:55.321Z,72.77
2019-02-28T05:08:24.193Z,66.57
2019-02-28T05:10:55.594Z,59.60
2019-02-28T05:13:23.335Z,65.57
2019-02-28T05:15:52.066Z,65.40
2019-02-28T05:18:20.762Z,63.60
2019-02-28T05:20:49.471Z,67.03
2019-02-28T05:23:18.260Z,75.93
2019-02-28T05:25:49.070Z,64.07
2019-02-28T05:28:17.751Z,62.17
2019-02-28T05:30:46.747Z,65.87
2019-02-28T05:33:15.437Z,72.20
2019-02-28T05:35:44.161Z,56.13
2019-02-28T05:38:12.878Z,64.37
2019-02-28T05:40:41.607Z,70.53
2019-02-28T05:43:10.425Z,58.13
2019-02-28T05:45:39.221Z,60.00
2019-02-28T05:48:07.948Z,68.10
2019-02-28T05:50:36.774Z,63.20
2019-02-28T05:53:06.327Z,70.83
2019-02-28T05:55:35.959Z,66.70
2019-02-28T05:58:04.697Z,70.30
2019-02-28T06:00:37.049Z,42.27
2019-02-28T06:03:03.920Z,58.13
2019-02-28T06:05:32.645Z,60.60
2019-02-28T06:08:03.549Z,63.07
2019-02-28T06:10:32.043Z,65.17
2019-02-28T06:13:05.410Z,67.27
2019-02-28T06:15:36.929Z,62.90
2019-02-28T06:18:04.641Z,74.77
2019-02-28T06:20:33.516Z,72.90
2019-02-28T06:23:02.280Z,62.13
2019-02-28T06:25:31.053Z,82.40
2019-02-28T06:27:59.844Z,81.80
2019-02-28T06:30:28.648Z,70.53
2019-02-28T06:32:59.269Z,63.90
2019-02-28T06:35:27.845Z,73.07
2019-02-28T06:37:56.576Z,58.73
2019-02-28T06:40:25.292Z,68.23
2019-02-28T06:42:55.823Z,63.03
2019-02-28T06:45:24.577Z,79.83
2019-02-28T06:47:53.316Z,74.50
2019-02-28T06:50:22.039Z,80.37
2019-02-28T06:52:50.781Z,65.47
2019-02-28T06:55:22.592Z,72.63
2019-02-28T06:57:51.407Z,73.00
2019-02-28T07:00:20.149Z,70.90
2019-02-28T07:02:50.139Z,77.07
2019-02-28T07:05:24.348Z,62.90
2019-02-28T07:07:50.177Z,73.53
2019-02-28T07:10:19.489Z,81.83
2019-02-28T07:13:04.271Z,61.00
2019-02-28T07:15:29.793Z,81.73
2019-02-28T07:17:58.539Z,77.97
2019-02-28T07:20:27.237Z,55.03
2019-02-28T07:22:56.013Z,74.07
2019-02-28T07:25:24.925Z,79.87
2019-02-28T07:27:53.664Z,58.23
2019-02-28T07:30:22.432Z,87.00
2019-02-28T07:32:51.329Z,72.30
2019-02-28T07:35:20.038Z,71.80
2019-02-28T07:37:53.196Z,85.13
2019-02-28T07:40:19.196Z,77.90
2019-02-28T07:42:47.934Z,90.87
2019-02-28T07:45:16.726Z,88.07
2019-02-28T07:47:45.492Z,93.50
2019-02-28T07:50:14.379Z,97.17
2019-02-28T07:52:43.173Z,86.27
2019-02-28T07:55:12.121Z,91.50
2019-02-28T07:57:40.927Z,89.50
2019-02-28T08:00:16.807Z,88.30
2019-02-28T08:02:42.337Z,96.17
2019-02-28T08:05:11.321Z,87.80
2019-02-28T08:07:40.163Z,82.03
2019-02-28T08:10:12.713Z,94.30
2019-02-28T08:12:40.519Z,89.47
2019-02-28T08:15:10.815Z,88.17
2019-02-28T08:17:40.668Z,78.13
2019-02-28T08:20:10.115Z,84.47
2019-02-28T08:22:38.892Z,83.00
2019-02-28T08:25:11.051Z,82.40
2019-02-28T08:27:39.867Z,70.03
2019-02-28T08:30:10.605Z,73.70
2019-02-28T08:32:43.907Z,73.00
2019-02-28T08:35:11.595Z,60.67
2019-02-28T08:37:40.385Z,78.40
2019-02-28T08:40:12.599Z,71.30
2019-02-28T08:42:40.670Z,73.40
2019-02-28T08:45:10.906Z,66.87
2019-02-28T08:47:39.795Z,71.47
2019-02-28T08:50:10.022Z,78.53
2019-02-28T08:52:41.198Z,73.43
2019-02-28T08:55:09.989Z,73.67
2019-02-28T08:57:38.773Z,65.80
2019-02-28T09:00:08.613Z,73.30
2019-02-28T09:02:37.389Z,74.33
2019-02-28T09:05:06.767Z,71.20
2019-02-28T09:07:35.741Z,66.17
2019-02-28T09:10:06.371Z,65.20
2019-02-28T09:12:35.583Z,63.60
2019-02-28T09:15:04.727Z,65.83
2019-02-28T09:17:33.529Z,63.00
2019-02-28T09:20:02.244Z,69.63
2019-02-28T09:22:31.000Z,69.97
2019-02-28T09:24:59.754Z,61.70
2019-02-28T09:27:28.531Z,55.33
2019-02-28T09:29:57.297Z,55.00
2019-02-28T09:32:26.025Z,61.53
2019-02-28T09:34:54.769Z,56.30
2019-02-28T09:37:23.540Z,60.00
2019-02-28T09:39:54.239Z,50.73
2019-02-28T09:42:22.770Z,47.13
2019-02-28T09:44:51.477Z,54.73
2019-02-28T09:47:20.224Z,52.73
2019-02-28T09:49:49.020Z,56.03
2019-02-28T09:52:17.733Z,49.73
2019-02-28T09:54:46.482Z,53.37
2019-02-28T09:57:15.369Z,52.43
2019-02-28T09:59:45.711Z,47.83
2019-02-28T10:02:14.549Z,49.40
2019-02-28T10:04:43.395Z,45.17
2019-02-28T10:07:12.157Z,43.30
2019-02-28T10:09:44.247Z,40.83
2019-02-28T10:12:11.330Z,45.23
2019-02-28T10:14:40.092Z,43.47
2019-02-28T10:17:08.869Z,41.67
2019-02-28T10:19:45.428Z,43.33
2019-02-28T10:22:10.099Z,39.47
2019-02-28T10:24:39.033Z,35.83
2019-02-28T10:27:07.848Z,43.47
2019-02-28T10:29:38.461Z,35.47
2019-02-28T10:32:09.012Z,40.03
2019-02-28T10:34:37.618Z,36.50
2019-02-28T10:37:06.331Z,40.17
2019-02-28T10:39:35.089Z,37.60
2019-02-28T10:42:05.155Z,45.97
2019-02-28T10:44:34.240Z,40.10
2019-02-28T10:47:03.038Z,35.07
2019-02-28T10:49:31.822Z,38.00
2019-02-28T10:52:00.551Z,36.83
2019-02-28T10:54:29.260Z,36.13
2019-02-28T10:56:58.112Z,39.13
2019-02-28T10:59:26.903Z,37.47
2019-02-28T11:01:55.718Z,34.77
2019-02-28T11:04:24.779Z,39.00
2019-02-28T11:06:53.630Z,36.07
2019-02-28T11:09:25.254Z,39.60
2019-02-28T11:11:52.821Z,41.43
2019-02-28T11:14:21.670Z,39.80
2019-02-28T11:16:50.457Z,41.37
2019-02-28T11:19:19.597Z,36.57
2019-02-28T11:21:48.404Z,32.20
2019-02-28T11:24:17.242Z,34.90
2019-02-28T11:26:46.151Z,30.37
2019-02-28T11:29:14.884Z,38.53
2019-02-28T11:31:43.682Z,33.37
2019-02-28T11:34:15.036Z,29.70
2019-02-28T11:36:44.758Z,31.23
2019-02-28T11:39:16.845Z,29.10
2019-02-28T11:41:45.590Z,36.90
2019-02-28T11:44:14.310Z,31.20
2019-02-28T11:46:43.064Z,29.67
2019-02-28T11:49:13.632Z,30.60
2019-02-28T11:51:42.335Z,40.03
2019-02-28T11:54:12.244Z,39.33
2019-02-28T11:56:41.658Z,36.00
2019-02-28T11:59:10.854Z,34.87
2019-02-28T12:01:42.421Z,24.33
2019-02-28T12:04:10.079Z,39.70
2019-02-28T12:06:38.806Z,32.43
2019-02-28T12:09:08.012Z,27.53
2019-02-28T12:11:37.231Z,26.20
2019-02-28T12:14:06.386Z,26.63
2019-02-28T12:16:35.339Z,31.70
2019-02-28T12:19:04.158Z,32.03
2019-02-28T12:21:37.608Z,29.43
2019-02-28T12:24:03.387Z,26.67
2019-02-28T12:26:32.219Z,38.10
2019-02-28T12:29:00.995Z,29.17
2019-02-28T12:31:32.119Z,38.73
2019-02-28T12:34:00.298Z,33.03
2019-02-28T12:36:29.089Z,42.43
2019-02-28T12:38:59.426Z,36.33
2019-02-28T12:41:28.408Z,39.07
2019-02-28T12:43:57.143Z,31.77
2019-02-28T12:46:25.864Z,29.13
2019-02-28T12:48:54.693Z,32.07
2019-02-28T12:51:23.485Z,32.97
2019-02-28T12:53:52.287Z,33.60
2019-02-28T12:56:21.017Z,27.87
2019-02-28T12:58:49.779Z,25.63
2019-02-28T13:01:18.598Z,35.00
2019-02-28T13:03:47.389Z,28.93
2019-02-28T13:06:16.239Z,32.90
2019-02-28T13:08:45.060Z,31.20
2019-02-28T13:11:13.800Z,30.53
2019-02-28T13:13:42.585Z,32.60
2019-02-28T13:16:11.383Z,35.03
2019-02-28T13:18:43.732Z,29.73
2019-02-28T13:21:11.671Z,29.63
2019-02-28T13:23:43.832Z,35.53
2019-02-28T13:26:12.595Z,45.03
2019-02-28T13:28:41.390Z,37.80
2019-02-28T13:31:10.304Z,29.57
2019-02-28T13:33:39.075Z,26.33
2019-02-28T13:36:07.903Z,22.57
2019-02-28T13:38:36.726Z,29.17
2019-02-28T13:41:05.460Z,28.03
2019-02-28T13:43:34.359Z,28.47
2019-02-28T13:46:03.128Z,28.53
2019-02-28T13:48:33.954Z,25.30
2019-02-28T13:51:03.291Z,33.23
2019-02-28T13:53:32.093Z,31.77
2019-02-28T13:56:00.871Z,35.47
2019-02-28T13:58:29.623Z,34.73
2019-02-28T14:00:58.407Z,40.77
2019-02-28T14:03:27.235Z,36.10
2019-02-28T14:05:56.027Z,31.67
2019-02-28T14:08:24.825Z,32.97
2019-02-28T14:10:54.149Z,22.53
2019-02-28T14:13:22.986Z,29.23
2019-02-28T14:15:53.124Z,32.47
2019-02-28T14:18:22.119Z,29.63
2019-02-28T14:20:50.911Z,32.70
2019-02-28T14:23:20.829Z,32.80
2019-02-28T14:25:50.111Z,21.57
2019-02-28T14:28:19.212Z,36.57
2019-02-28T14:30:47.963Z,27.60
2019-02-28T14:33:19.423Z,26.87
2019-02-28T14:35:47.455Z,37.47
2019-02-28T14:38:16.246Z,41.17
2019-02-28T14:40:45.043Z,30.03
2019-02-28T14:43:13.849Z,40.10
2019-02-28T14:45:43.918Z,29.97
2019-02-28T14:48:12.990Z,23.73
2019-02-28T14:50:41.921Z,33.53
2019-02-28T14:53:14.422Z,22.67
2019-02-28T14:55:41.193Z,29.97
2019-02-28T14:58:09.966Z,34.40
2019-02-28T15:00:41.844Z,34.50
2019-02-28T15:03:09.240Z,27.70
2019-02-28T15:05:38.192Z,29.00
2019-02-28T15:08:06.977Z,29.57
2019-02-28T15:10:35.893Z,28.30
2019-02-28T15:13:05.008Z,32.10
2019-02-28T15:15:36.155Z,29.93
2019-02-28T15:18:04.398Z,25.37
2019-02-28T15:20:33.389Z,33.40
2019-02-28T15:23:02.278Z,28.37
2019-02-28T15:25:31.209Z,27.07
2019-02-28T15:28:00.020Z,28.53
2019-02-28T15:30:30.542Z,31.70
2019-02-28T15:33:03.326Z,29.37
2019-02-28T15:35:31.806Z,25.87
2019-02-28T15:38:00.660Z,27.70
2019-02-28T15:40:30.659Z,22.20
2019-02-28T15:42:59.463Z,23.97
2019-02-28T15:45:28.417Z,20.80
2019-02-28T15:47:58.917Z,25.57
2019-02-28T15:50:27.897Z,16.60
2019-02-28T15:52:56.757Z,24.77
2019-02-28T15:55:25.564Z,16.40
2019-02-28T15:57:54.347Z,19.67
2019-02-28T16:00:24.302Z,16.53
2019-02-28T16:02:56.416Z,14.67
2019-02-28T16:05:29.586Z,19.43
2019-02-28T16:08:01.660Z,15.50
2019-02-28T16:10:31.958Z,22.33
2019-02-28T16:13:01.272Z,13.73
2019-02-28T16:15:30.163Z,17.27
2019-02-28T16:18:08.659Z,20.47
2019-02-28T16:20:38.177Z,16.77
2019-02-28T16:23:07.183Z,15.43
2019-02-28T16:25:36.051Z,27.07
2019-02-28T16:28:07.651Z,16.17
2019-02-28T16:30:35.791Z,20.20
2019-02-28T16:33:04.578Z,20.27
2019-02-28T16:35:33.432Z,12.50
2019-02-28T16:38:02.258Z,17.53
2019-02-28T16:40:31.088Z,17.07
2019-02-28T16:42:59.796Z,15.30
2019-02-28T16:45:34.200Z,17.27
2019-02-28T16:48:05.418Z,14.27
2019-02-28T16:50:34.289Z,29.57
2019-02-28T16:53:03.261Z,21.80
2019-02-28T16:55:32.099Z,16.10
2019-02-28T16:58:00.950Z,23.37
2019-02-28T17:00:29.963Z,21.23
2019-02-28T17:02:58.724Z,18.77
2019-02-28T17:05:28.379Z,13.93
2019-02-28T17:07:57.353Z,18.63
2019-02-28T17:10:31.903Z,15.10
2019-02-28T17:13:19.752Z,24.10
2019-02-28T17:16:06.609Z,13.83
2019-02-28T17:18:38.472Z,18.03
2019-02-28T17:21:07.519Z,16.13
2019-02-28T17:23:37.005Z,24.30
2019-02-28T17:26:06.965Z,20.27
2019-02-28T17:28:46.575Z,25.97
2019-02-28T17:31:39.348Z,18.70
2019-02-28T17:34:08.387Z,18.37
2019-02-28T17:36:37.273Z,16.57
2019-02-28T17:39:07.162Z,20.03
2019-02-28T17:41:37.206Z,23.40
2019-02-28T17:44:28.284Z,15.57
2019-02-28T17:47:00.546Z,23.27
2019-02-28T17:49:50.016Z,15.90
2019-02-28T17:52:22.125Z,18.70
2019-02-28T17:54:59.836Z,17.07
2019-02-28T17:57:35.395Z,19.07
2019-02-28T18:00:12.977Z,21.77
2019-02-28T18:03:01.178Z,13.90
2019-02-28T18:05:52.119Z,24.57
2019-02-28T18:08:23.538Z,17.97
2019-02-28T18:11:09.976Z,21.33
2019-02-28T18:14:09.822Z,28.30
2019-02-28T18:16:58.021Z,19.80
2019-02-28T18:19:37.030Z,14.87
2019-02-28T18:22:23.703Z,24.70
2019-02-28T18:25:17.217Z,19.23
2019-02-28T18:27:57.133Z,20.83
2019-02-28T18:30:46.324Z,19.13
2019-02-28T18:33:15.640Z,19.73
2019-02-28T18:35:44.420Z,14.27
2019-02-28T18:38:14.949Z,18.40
2019-02-28T18:40:43.710Z,17.07
2019-02-28T18:43:12.528Z,21.23
2019-02-28T18:45:41.302Z,16.80
2019-02-28T18:48:11.336Z,20.97
2019-02-28T18:50:40.441Z,16.73
2019-02-28T18:53:09.531Z,14.47
2019-02-28T18:55:38.430Z,14.00
2019-02-28T18:58:07.469Z,19.73
2019-02-28T19:00:36.338Z,19.80
2019-02-28T19:03:05.270Z,22.37
2019-02-28T19:05:34.156Z,17.07
2019-02-28T19:08:03.124Z,16.30
2019-02-28T19:10:32.025Z,24.93
2019-02-28T19:13:00.867Z,19.43
2019-02-28T19:15:30.370Z,19.70
2019-02-28T19:17:59.329Z,23.17
2019-02-28T19:20:28.268Z,17.03
2019-02-28T19:22:57.153Z,18.67
2019-02-28T19:25:26.044Z,19.30
2019-02-28T19:27:55.526Z,23.40
2019-02-28T19:30:24.768Z,14.63
2019-02-28T19:32:54.068Z,19.23
2019-02-28T19:35:23.230Z,33.17
2019-02-28T19:37:53.426Z,23.00
2019-02-28T19:40:22.844Z,21.17
2019-02-28T19:42:51.653Z,30.37
2019-02-28T19:45:20.589Z,14.27
2019-02-28T19:47:49.515Z,22.40
2019-02-28T19:50:18.447Z,19.07
2019-02-28T19:52:47.331Z,24.90
2019-02-28T19:55:16.299Z,16.43
2019-02-28T19:57:45.204Z,8.33
2019-02-28T20:00:14.917Z,15.87
2019-02-28T20:02:45.487Z,15.80
2019-02-28T20:05:14.684Z,15.70
2019-02-28T20:07:43.689Z,15.00
2019-02-28T20:10:13.250Z,11.83
2019-02-28T20:12:43.038Z,21.13
2019-02-28T20:15:13.194Z,22.10
2019-02-28T20:17:42.127Z,27.63
2019-02-28T20:20:12.999Z,20.30
2019-02-28T20:22:41.873Z,25.53
2019-02-28T20:25:11.267Z,15.20
2019-02-28T20:27:40.235Z,26.03
2019-02-28T20:30:10.331Z,16.43
2019-02-28T20:32:39.227Z,18.17
2019-02-28T20:35:08.289Z,13.27
2019-02-28T20:37:37.137Z,19.47
2019-02-28T20:40:07.050Z,21.77
2019-02-28T20:42:35.960Z,24.70
2019-02-28T20:45:05.757Z,17.07
2019-02-28T20:47:34.663Z,28.50
2019-02-28T20:50:04.053Z,17.30
2019-02-28T20:52:32.988Z,19.83
2019-02-28T20:55:02.264Z,19.23
2019-02-28T20:57:31.079Z,22.67
2019-02-28T20:59:59.934Z,21.80
2019-02-28T21:02:28.760Z,17.67
2019-02-28T21:04:57.612Z,15.13
2019-02-28T21:07:26.441Z,21.37
2019-02-28T21:09:55.246Z,20.63
2019-02-28T21:12:24.038Z,21.97
2019-02-28T21:14:52.856Z,21.03
2019-02-28T21:17:29.217Z,15.90
2019-02-28T21:19:52.051Z,23.33
2019-02-28T21:22:23.898Z,18.03
2019-02-28T21:24:52.890Z,17.90
2019-02-28T21:27:21.730Z,15.90
2019-02-28T21:29:50.536Z,24.93
2019-02-28T21:32:19.463Z,15.50
2019-02-28T21:34:48.551Z,19.13
2019-02-28T21:37:17.447Z,20.83
2019-02-28T21:39:49.834Z,17.63
2019-02-28T21:42:18.729Z,19.97
2019-02-28T21:44:49.564Z,25.60
2019-02-28T21:47:18.260Z,16.97
2019-02-28T21:49:47.161Z,29.60
2019-02-28T21:52:16.123Z,15.53
2019-02-28T21:54:45.291Z,22.87
2019-02-28T21:57:14.061Z,29.53
2019-02-28T21:59:42.929Z,18.60
2019-02-28T22:02:11.837Z,15.90
2019-02-28T22:04:40.603Z,20.57
2019-02-28T22:07:09.406Z,17.70
2019-02-28T22:09:38.285Z,19.53
2019-02-28T22:12:07.234Z,9.00
2019-02-28T22:14:36.039Z,9.37
2019-02-28T22:17:04.856Z,17.63
2019-02-28T22:19:34.230Z,19.17
2019-02-28T22:22:03.135Z,23.17
2019-02-28T22:24:32.276Z,16.23
2019-02-28T22:27:01.067Z,21.87
2019-02-28T22:29:30.187Z,22.57
2019-02-28T22:32:08.052Z,18.33
2019-02-28T22:34:57.525Z,21.33
2019-02-28T22:37:26.381Z,15.67
2019-02-28T22:39:55.307Z,19.47
2019-02-28T22:42:24.107Z,23.20
2019-02-28T22:44:52.886Z,21.13
2019-02-28T22:47:21.624Z,22.70
2019-02-28T22:49:50.419Z,17.03
2019-02-28T22:52:19.300Z,18.63
2019-02-28T22:54:48.027Z,16.23
2019-02-28T22:57:16.831Z,14.47
2019-02-28T22:59:45.621Z,21.30
2019-02-28T23:02:14.371Z,12.07
2019-02-28T23:04:43.114Z,16.87
2019-02-28T23:07:11.907Z,12.93
2019-02-28T23:09:40.626Z,23.20
2019-02-28T23:12:09.412Z,15.37
2019-02-28T23:14:38.251Z,19.87
2019-02-28T23:17:06.983Z,16.33
2019-02-28T23:19:35.785Z,17.60
2019-02-28T23:22:04.661Z,19.03
2019-02-28T23:24:33.402Z,15.07
2019-02-28T23:27:12.374Z,23.00
2019-02-28T23:29:46.196Z,25.37
2019-02-28T23:32:33.006Z,16.80
2019-02-28T23:35:01.795Z,16.63
2019-02-28T23:37:30.625Z,24.90
2019-02-28T23:39:59.457Z,22.17
2019-02-28T23:42:28.306Z,22.53
2019-02-28T23:44:57.110Z,21.50
2019-02-28T23:47:25.833Z,20.70
2019-02-28T23:49:54.588Z,21.10
2019-02-28T23:52:23.338Z,23.00
2019-02-28T23:54:52.125Z,24.60
2019-02-28T23:57:20.892Z,19.60
2019-02-28T23:59:49.601Z,23.87
